createdAt,value
2023-01-11T00:01:11.589Z,4.60
2023-01-11T00:03:39.626Z,4.50
2023-01-11T00:06:08.496Z,4.60
2023-01-11T00:08:36.920Z,4.80
2023-01-11T00:11:05.781Z,4.80
2023-01-11T00:13:33.987Z,4.60
2023-01-11T00:16:07.301Z,4.60
2023-01-11T00:18:36.506Z,4.80
2023-01-11T00:21:06.222Z,4.70
2023-01-11T00:23:35.314Z,4.50
2023-01-11T00:26:05.404Z,4.20
2023-01-11T00:28:33.736Z,4.40
2023-01-11T00:31:02.298Z,4.40
2023-01-11T00:33:30.364Z,4.40
2023-01-11T00:35:58.368Z,4.40
2023-01-11T00:38:44.365Z,4.50
2023-01-11T00:41:33.265Z,4.60
2023-01-11T00:44:19.722Z,4.70
2023-01-11T00:47:05.849Z,4.60
2023-01-11T00:49:33.901Z,4.50
2023-01-11T00:52:02.225Z,4.50
2023-01-11T00:54:29.984Z,4.40
2023-01-11T00:56:58.019Z,4.50
2023-01-11T00:59:25.954Z,4.30
2023-01-11T01:01:54.062Z,4.20
2023-01-11T01:04:21.967Z,4.10
2023-01-11T01:06:49.969Z,4.00
2023-01-11T01:09:17.951Z,4.00
2023-01-11T01:11:46.033Z,4.00
2023-01-11T01:14:28.722Z,4.00
2023-01-11T01:16:59.321Z,4.00
2023-01-11T01:19:30.713Z,3.80
2023-01-11T01:21:59.911Z,3.60
2023-01-11T01:24:29.064Z,3.60
2023-01-11T01:27:00.183Z,3.60
2023-01-11T01:29:28.128Z,3.50
2023-01-11T01:31:56.345Z,3.60
2023-01-11T01:34:24.296Z,3.80
2023-01-11T01:36:52.490Z,4.00
2023-01-11T01:39:20.414Z,3.90
2023-01-11T01:41:48.467Z,3.80
2023-01-11T01:44:53.968Z,4.00
2023-01-11T01:47:39.648Z,4.10
2023-01-11T01:50:13.917Z,4.00
2023-01-11T01:52:45.107Z,4.10
2023-01-11T01:55:17.512Z,4.00
2023-01-11T01:57:46.234Z,4.00
2023-01-11T02:00:15.129Z,3.90
2023-01-11T02:02:45.474Z,3.80
2023-01-11T02:05:15.430Z,3.90
2023-01-11T02:07:45.078Z,3.80
2023-01-11T02:10:20.685Z,3.70
2023-01-11T02:13:02.258Z,3.70
2023-01-11T02:15:30.923Z,3.70
2023-01-11T02:17:58.917Z,3.70
2023-01-11T02:20:45.487Z,3.70
2023-01-11T02:23:29.514Z,3.70
2023-01-11T02:26:17.681Z,3.50
2023-01-11T02:28:55.131Z,3.50
2023-01-11T02:31:32.060Z,3.50
2023-01-11T02:34:18.369Z,3.40
2023-01-11T02:37:06.945Z,3.40
2023-01-11T02:39:49.637Z,3.20
2023-01-11T02:42:56.832Z,3.10
2023-01-11T02:45:47.515Z,3.10
2023-01-11T02:48:41.892Z,3.10
2023-01-11T02:51:26.687Z,3.20
2023-01-11T02:53:59.464Z,3.30
2023-01-11T02:56:30.033Z,3.50
2023-01-11T02:58:58.809Z,3.60
2023-01-11T03:01:26.945Z,3.70
2023-01-11T03:03:55.355Z,3.80
2023-01-11T03:06:32.745Z,3.80
2023-01-11T03:09:22.415Z,3.80
2023-01-11T03:12:20.913Z,3.90
2023-01-11T03:15:10.723Z,4.00
2023-01-11T03:17:52.753Z,4.00
2023-01-11T03:20:35.784Z,3.90
2023-01-11T03:23:21.890Z,3.80
2023-01-11T03:26:00.607Z,3.70
2023-01-11T03:28:47.024Z,3.70
2023-01-11T03:31:25.612Z,3.90
2023-01-11T03:34:20.127Z,3.90
2023-01-11T03:37:01.937Z,4.00
2023-01-11T03:39:45.114Z,3.70
2023-01-11T03:42:17.697Z,3.70
2023-01-11T03:44:50.993Z,3.70
2023-01-11T03:47:22.875Z,3.80
2023-01-11T03:50:11.410Z,3.80
2023-01-11T03:52:42.674Z,3.70
2023-01-11T03:55:12.864Z,3.90
2023-01-11T03:57:47.436Z,3.70
2023-01-11T04:00:15.666Z,3.60
2023-01-11T04:02:43.718Z,3.40
2023-01-11T04:05:12.465Z,3.40
2023-01-11T04:07:40.675Z,3.40
2023-01-11T04:10:09.477Z,3.50
2023-01-11T04:12:37.771Z,3.50
2023-01-11T04:15:06.116Z,3.40
2023-01-11T04:17:34.099Z,3.30
2023-01-11T04:20:02.085Z,3.40
2023-01-11T04:22:30.033Z,3.50
2023-01-11T04:24:57.897Z,3.40
2023-01-11T04:27:26.194Z,3.50
2023-01-11T04:29:54.136Z,3.40
2023-01-11T04:32:22.406Z,3.50
2023-01-11T04:34:50.792Z,3.50
2023-01-11T04:37:18.829Z,3.50
2023-01-11T04:39:46.865Z,3.30
2023-01-11T04:42:20.573Z,3.40
2023-01-11T04:44:50.102Z,3.50
2023-01-11T04:47:20.082Z,3.40
2023-01-11T04:49:49.251Z,3.40
2023-01-11T04:52:19.408Z,3.40
2023-01-11T04:54:49.001Z,3.40
2023-01-11T04:57:17.980Z,3.40
2023-01-11T04:59:48.958Z,3.30
2023-01-11T05:02:17.029Z,3.30
2023-01-11T05:04:45.384Z,3.40
2023-01-11T05:07:13.359Z,3.50
2023-01-11T05:09:41.418Z,3.50
2023-01-11T05:12:09.535Z,3.60
2023-01-11T05:14:37.559Z,3.50
2023-01-11T05:17:05.432Z,3.60
2023-01-11T05:19:33.400Z,3.70
2023-01-11T05:22:01.222Z,3.70
2023-01-11T05:24:29.168Z,3.60
2023-01-11T05:26:57.382Z,3.70
2023-01-11T05:29:25.379Z,3.60
2023-01-11T05:31:53.440Z,3.30
2023-01-11T05:34:21.446Z,3.10
2023-01-11T05:36:49.499Z,3.00
2023-01-11T05:39:17.255Z,2.90
2023-01-11T05:41:45.360Z,2.90
2023-01-11T05:44:32.325Z,2.70
2023-01-11T05:47:00.497Z,2.90
2023-01-11T05:49:28.511Z,3.00
2023-01-11T05:51:56.721Z,2.90
2023-01-11T05:54:24.793Z,2.90
2023-01-11T05:56:52.727Z,3.00
2023-01-11T05:59:20.814Z,3.10
2023-01-11T06:01:49.185Z,3.30
2023-01-11T06:04:17.085Z,3.40
2023-01-11T06:06:45.292Z,3.40
2023-01-11T06:09:13.168Z,3.40
2023-01-11T06:11:41.413Z,3.20
2023-01-11T06:14:09.306Z,3.20
2023-01-11T06:16:37.440Z,3.20
2023-01-11T06:19:05.475Z,3.30
2023-01-11T06:21:33.498Z,3.30
2023-01-11T06:24:01.564Z,3.20
2023-01-11T06:26:29.725Z,3.30
2023-01-11T06:28:57.699Z,3.50
2023-01-11T06:31:25.901Z,3.60
2023-01-11T06:33:53.793Z,3.50
2023-01-11T06:36:21.884Z,3.40
2023-01-11T06:38:49.963Z,3.40
2023-01-11T06:41:17.845Z,3.40
2023-01-11T06:43:46.766Z,3.40
2023-01-11T06:46:15.994Z,3.40
2023-01-11T06:48:45.263Z,3.40
2023-01-11T06:51:14.929Z,3.40
2023-01-11T06:53:44.124Z,3.40
2023-01-11T06:56:14.985Z,3.50
2023-01-11T06:58:43.994Z,3.50
2023-01-11T07:01:13.803Z,3.30
2023-01-11T07:03:41.817Z,3.20
2023-01-11T07:06:09.943Z,3.20
2023-01-11T07:08:38.578Z,3.10
2023-01-11T07:11:07.356Z,3.10
2023-01-11T07:13:36.042Z,3.10
2023-01-11T07:16:04.111Z,3.20
2023-01-11T07:18:33.670Z,3.00
2023-01-11T07:21:02.729Z,3.10
2023-01-11T07:23:30.722Z,3.30
2023-01-11T07:25:58.747Z,3.20
2023-01-11T07:28:28.720Z,3.20
2023-01-11T07:30:59.416Z,3.30
2023-01-11T07:33:28.386Z,3.30
2023-01-11T07:35:58.315Z,3.20
2023-01-11T07:38:26.849Z,3.40
2023-01-11T07:40:54.806Z,3.60
2023-01-11T07:43:24.079Z,3.70
2023-01-11T07:45:53.484Z,3.70
2023-01-11T07:48:28.023Z,3.80
2023-01-11T07:50:56.028Z,4.00
2023-01-11T07:53:26.533Z,4.30
2023-01-11T07:55:57.684Z,4.30
2023-01-11T07:58:25.897Z,4.20
2023-01-11T08:00:53.941Z,4.20
2023-01-11T08:03:22.029Z,4.20
2023-01-11T08:05:52.023Z,4.30
2023-01-11T08:08:20.667Z,4.40
2023-01-11T08:11:08.821Z,4.50
2023-01-11T08:13:55.281Z,4.60
2023-01-11T08:16:23.808Z,4.70
2023-01-11T08:18:53.298Z,4.90
2023-01-11T08:21:22.954Z,4.90
2023-01-11T08:23:53.105Z,5.00
2023-01-11T08:26:22.458Z,5.20
2023-01-11T08:28:50.765Z,5.20
2023-01-11T08:31:18.967Z,5.30
2023-01-11T08:33:47.505Z,5.40
2023-01-11T08:36:15.835Z,5.40
2023-01-11T08:38:44.579Z,5.50
2023-01-11T08:41:12.515Z,5.50
2023-01-11T08:43:42.042Z,5.50
2023-01-11T08:46:10.888Z,5.60
2023-01-11T08:48:38.728Z,5.70
2023-01-11T08:51:07.034Z,6.00
2023-01-11T08:53:35.226Z,6.10
2023-01-11T08:56:03.279Z,6.10
2023-01-11T08:58:31.144Z,6.10
2023-01-11T09:01:02.813Z,6.20
2023-01-11T09:03:31.841Z,6.30
2023-01-11T09:05:59.716Z,6.40
2023-01-11T09:08:28.881Z,6.40
2023-01-11T09:10:59.927Z,6.40
2023-01-11T09:13:28.444Z,6.50
2023-01-11T09:15:59.591Z,6.60
2023-01-11T09:18:27.750Z,6.60
2023-01-11T09:20:55.925Z,6.70
2023-01-11T09:23:23.977Z,6.80
2023-01-11T09:25:52.015Z,6.90
2023-01-11T09:28:19.941Z,7.10
2023-01-11T09:30:47.824Z,7.20
2023-01-11T09:33:15.714Z,7.20
2023-01-11T09:35:46.428Z,7.20
2023-01-11T09:38:14.456Z,7.10
2023-01-11T09:41:12.364Z,7.10
2023-01-11T09:43:52.927Z,7.10
2023-01-11T09:46:21.168Z,7.20
2023-01-11T09:48:59.932Z,7.40
2023-01-11T09:51:35.680Z,7.40
2023-01-11T09:54:07.989Z,7.60
2023-01-11T09:56:47.682Z,7.80
2023-01-11T09:59:30.049Z,7.70
2023-01-11T10:02:17.715Z,7.70
2023-01-11T10:05:22.597Z,7.80
2023-01-11T10:18:23.319Z,7.90
2023-01-11T10:18:30.327Z,7.90
2023-01-11T10:20:44.152Z,8.10
2023-01-11T10:23:29.080Z,8.20
2023-01-11T10:26:00.632Z,8.20
2023-01-11T10:28:35.513Z,8.20
2023-01-11T10:31:30.075Z,8.40
2023-01-11T10:34:18.650Z,8.60
2023-01-11T10:37:00.065Z,8.60
2023-01-11T10:39:54.997Z,8.80
2023-01-11T10:42:30.204Z,9.10
2023-01-11T10:45:04.392Z,9.20
2023-01-11T10:47:37.384Z,9.50
2023-01-11T10:50:08.972Z,9.60
2023-01-11T10:52:48.168Z,9.70
2023-01-11T10:55:26.062Z,9.70
2023-01-11T10:58:22.971Z,9.70
2023-01-11T11:01:32.913Z,9.80
2023-01-11T11:04:30.139Z,9.60
2023-01-11T11:07:06.090Z,9.60
2023-01-11T11:10:19.137Z,9.50
2023-01-11T11:13:00.355Z,9.50
2023-01-11T11:15:41.444Z,9.70
2023-01-11T11:18:10.615Z,9.70
2023-01-11T11:20:38.493Z,9.60
2023-01-11T11:23:06.445Z,9.90
2023-01-11T11:25:41.438Z,9.90
2023-01-11T11:28:22.950Z,9.90
2023-01-11T11:30:54.875Z,10.00
2023-01-11T11:33:38.573Z,10.30
2023-01-11T11:36:11.710Z,10.40
2023-01-11T11:38:42.476Z,10.50
2023-01-11T11:41:14.366Z,10.40
2023-01-11T11:43:44.367Z,10.40
2023-01-11T11:46:22.683Z,10.40
2023-01-11T11:49:16.264Z,10.40
2023-01-11T11:51:46.281Z,10.40
2023-01-11T11:54:20.476Z,10.40
2023-01-11T11:56:48.956Z,10.50
2023-01-11T11:59:20.553Z,10.50
2023-01-11T12:01:57.017Z,10.50
2023-01-11T12:04:51.841Z,10.60
2023-01-11T12:07:22.507Z,10.60
2023-01-11T12:09:55.726Z,10.70
2023-01-11T12:12:26.897Z,10.60
2023-01-11T12:15:29.280Z,10.80
2023-01-11T12:18:33.525Z,10.80
2023-01-11T12:21:21.797Z,10.80
2023-01-11T12:24:10.178Z,10.90
2023-01-11T12:26:59.980Z,10.90
2023-01-11T12:29:47.663Z,11.10
2023-01-11T12:32:50.747Z,11.00
2023-01-11T12:35:33.787Z,11.00
2023-01-11T12:38:33.490Z,10.80
2023-01-11T12:41:44.772Z,10.80
2023-01-11T12:44:41.850Z,11.00
2023-01-11T12:47:24.901Z,10.90
2023-01-11T12:50:34.352Z,11.00
2023-01-11T12:53:24.365Z,11.10
2023-01-11T12:56:37.211Z,11.10
2023-01-11T12:59:42.435Z,11.10
2023-01-11T13:02:30.867Z,11.20
2023-01-11T13:05:36.573Z,11.10
2023-01-11T13:08:33.613Z,11.00
2023-01-11T13:11:37.543Z,11.10
2023-01-11T13:14:33.245Z,11.00
2023-01-11T13:17:24.038Z,11.00
2023-01-11T13:20:21.374Z,11.10
2023-01-11T13:23:13.672Z,11.10
2023-01-11T13:25:45.708Z,11.20
2023-01-11T13:28:35.797Z,11.20
2023-01-11T13:31:07.825Z,10.90
2023-01-11T13:33:40.985Z,10.90
2023-01-11T13:36:23.324Z,10.90
2023-01-11T13:38:58.426Z,10.90
2023-01-11T13:41:41.538Z,10.80
2023-01-11T13:44:21.776Z,10.70
2023-01-11T13:47:12.527Z,10.80
2023-01-11T13:50:05.587Z,10.80
2023-01-11T13:52:39.524Z,10.90
2023-01-11T13:55:30.192Z,10.90
2023-01-11T13:58:07.447Z,10.90
2023-01-11T14:00:54.689Z,10.90
2023-01-11T14:03:30.755Z,10.90
2023-01-11T14:06:07.744Z,10.70
2023-01-11T14:08:53.100Z,10.80
2023-01-11T14:11:58.649Z,10.70
2023-01-11T14:14:38.384Z,10.80
2023-01-11T14:17:54.347Z,10.60
2023-01-11T14:20:35.946Z,10.70
2023-01-11T14:23:14.143Z,10.50
2023-01-11T14:26:04.275Z,10.50
2023-01-11T14:28:50.357Z,10.50
2023-01-11T14:31:39.433Z,10.40
2023-01-11T14:34:42.246Z,10.40
2023-01-11T14:37:25.224Z,10.30
2023-01-11T14:40:31.090Z,10.00
2023-01-11T14:43:27.035Z,9.90
2023-01-11T14:46:11.678Z,9.80
2023-01-11T14:49:19.422Z,9.90
2023-01-11T14:51:53.585Z,10.00
2023-01-11T14:54:38.258Z,10.10
2023-01-11T14:57:06.440Z,10.00
2023-01-11T14:59:39.903Z,9.90
2023-01-11T15:02:15.361Z,9.90
2023-01-11T15:04:52.527Z,10.00
2023-01-11T15:07:26.234Z,9.90
2023-01-11T15:09:54.389Z,9.90
2023-01-11T15:12:25.382Z,9.80
2023-01-11T15:14:54.801Z,9.70
2023-01-11T15:17:44.856Z,9.60
2023-01-11T15:20:16.581Z,9.60
2023-01-11T15:22:45.651Z,9.60
2023-01-11T15:25:26.621Z,9.40
2023-01-11T15:27:55.464Z,9.20
2023-01-11T15:30:29.912Z,8.90
2023-01-11T15:33:28.113Z,8.80
2023-01-11T15:35:56.196Z,8.70
2023-01-11T15:39:00.247Z,8.60
2023-01-11T15:42:04.671Z,8.40
2023-01-11T15:45:11.939Z,8.40
2023-01-11T15:48:00.855Z,8.30
2023-01-11T15:50:53.545Z,8.20
2023-01-11T15:53:43.723Z,8.10
2023-01-11T15:56:39.617Z,8.00
2023-01-11T15:59:26.768Z,8.00
2023-01-11T16:02:18.895Z,7.80
2023-01-11T16:04:57.176Z,7.80
2023-01-11T16:07:43.555Z,7.80
2023-01-11T16:11:02.244Z,7.80
2023-01-11T16:14:00.877Z,7.80
2023-01-11T16:16:40.829Z,8.00
2023-01-11T16:19:17.212Z,8.10
2023-01-11T16:21:49.543Z,8.00
2023-01-11T16:24:32.632Z,7.70
2023-01-11T16:27:04.258Z,7.70
2023-01-11T16:29:38.618Z,7.60
2023-01-11T16:32:20.603Z,7.50
2023-01-11T16:34:56.008Z,7.40
2023-01-11T16:37:49.823Z,7.40
2023-01-11T16:40:25.746Z,7.40
2023-01-11T16:43:28.856Z,7.30
2023-01-11T16:45:57.584Z,7.20
2023-01-11T16:48:28.963Z,7.20
2023-01-11T16:51:07.450Z,7.20
2023-01-11T16:53:40.968Z,7.20
2023-01-11T16:56:22.750Z,7.20
2023-01-11T16:59:33.542Z,7.10
2023-01-11T17:02:05.712Z,7.10
2023-01-11T17:04:38.756Z,7.10
2023-01-11T17:07:25.310Z,7.10
2023-01-11T17:09:53.606Z,7.10
2023-01-11T17:12:26.441Z,7.10
2023-01-11T17:15:31.773Z,7.00
2023-01-11T17:18:04.128Z,7.20
2023-01-11T17:20:32.496Z,7.30
2023-01-11T17:23:00.603Z,7.10
2023-01-11T17:25:43.593Z,6.90
2023-01-11T17:28:20.209Z,6.80
2023-01-11T17:30:50.417Z,6.70
2023-01-11T17:33:33.525Z,6.70
2023-01-11T17:36:03.308Z,6.70
2023-01-11T17:38:31.957Z,6.80
2023-01-11T17:41:01.689Z,6.80
2023-01-11T17:43:49.113Z,6.70
2023-01-11T17:46:26.892Z,6.70
2023-01-11T17:48:57.392Z,6.70
2023-01-11T17:51:31.987Z,6.70
2023-01-11T17:54:00.779Z,6.90
2023-01-11T17:56:45.884Z,6.90
2023-01-11T17:59:28.095Z,6.80
2023-01-11T18:01:59.767Z,6.80
2023-01-11T18:04:28.905Z,6.90
2023-01-11T18:07:18.697Z,6.90
2023-01-11T18:09:50.043Z,6.90
2023-01-11T18:12:22.228Z,6.90
2023-01-11T18:14:57.024Z,7.00
2023-01-11T18:17:39.243Z,7.00
2023-01-11T18:20:16.465Z,7.10
2023-01-11T18:23:16.588Z,7.20
2023-01-11T18:25:46.825Z,7.10
2023-01-11T18:28:41.732Z,7.00
2023-01-11T18:31:09.841Z,7.00
2023-01-11T18:33:40.688Z,7.00
2023-01-11T18:36:22.175Z,7.00
2023-01-11T18:38:50.858Z,6.90
2023-01-11T18:41:37.636Z,7.00
2023-01-11T18:44:05.614Z,7.10
2023-01-11T18:46:34.098Z,7.00
2023-01-11T18:49:02.080Z,7.20
2023-01-11T18:51:34.943Z,7.10
2023-01-11T18:54:03.104Z,7.00
2023-01-11T18:56:31.765Z,6.80
2023-01-11T18:59:00.161Z,6.90
2023-01-11T19:01:33.182Z,7.00
2023-01-11T19:04:01.784Z,7.10
2023-01-11T19:06:30.249Z,6.90
2023-01-11T19:08:58.509Z,6.90
2023-01-11T19:11:29.052Z,6.80
2023-01-11T19:13:58.310Z,6.90
2023-01-11T19:16:26.584Z,7.00
2023-01-11T19:18:55.449Z,7.00
2023-01-11T19:21:23.838Z,6.90
2023-01-11T19:23:51.967Z,7.00
2023-01-11T19:26:20.196Z,7.00
2023-01-11T19:28:48.205Z,7.10
2023-01-11T19:31:16.256Z,7.20
2023-01-11T19:33:45.090Z,7.20
2023-01-11T19:36:13.361Z,7.10
2023-01-11T19:38:41.706Z,7.20
2023-01-11T19:41:11.359Z,7.20
2023-01-11T19:43:45.428Z,7.10
2023-01-11T19:46:19.526Z,7.30
2023-01-11T19:48:56.835Z,7.40
2023-01-11T19:51:24.695Z,7.40
2023-01-11T19:53:52.595Z,7.30
2023-01-11T19:56:20.546Z,7.20
2023-01-11T19:58:48.802Z,7.10
2023-01-11T20:01:18.090Z,7.10
2023-01-11T20:03:46.345Z,6.90
2023-01-11T20:06:14.579Z,6.90
2023-01-11T20:08:43.010Z,6.90
2023-01-11T20:11:15.805Z,6.90
2023-01-11T20:13:51.235Z,6.90
2023-01-11T20:16:22.950Z,6.90
2023-01-11T20:18:57.087Z,7.00
2023-01-11T20:21:28.332Z,7.00
2023-01-11T20:24:39.881Z,7.00
2023-01-11T20:27:25.381Z,7.00
2023-01-11T20:29:59.939Z,7.10
2023-01-11T20:32:41.380Z,7.10
2023-01-11T20:35:18.834Z,7.10
2023-01-11T20:37:52.103Z,7.10
2023-01-11T20:40:21.797Z,7.20
2023-01-11T20:43:00.491Z,7.20
2023-01-11T20:45:33.982Z,7.20
2023-01-11T20:48:05.313Z,7.10
2023-01-11T20:50:38.970Z,7.10
2023-01-11T20:53:16.711Z,7.00
2023-01-11T20:55:46.728Z,7.00
2023-01-11T20:58:17.723Z,7.00
2023-01-11T21:00:51.888Z,6.90
2023-01-11T21:03:25.463Z,7.00
2023-01-11T21:05:58.530Z,7.10
2023-01-11T21:08:27.980Z,7.10
2023-01-11T21:10:58.011Z,7.10
2023-01-11T21:13:27.079Z,7.20
2023-01-11T21:15:58.774Z,7.10
2023-01-11T21:18:33.630Z,7.10
2023-01-11T21:21:02.656Z,7.10
2023-01-11T21:23:31.997Z,7.00
2023-01-11T21:26:00.738Z,6.90
2023-01-11T21:28:29.544Z,7.10
2023-01-11T21:31:05.849Z,7.20
2023-01-11T21:33:35.320Z,7.30
2023-01-11T21:36:11.132Z,7.40
2023-01-11T21:38:40.159Z,7.30
2023-01-11T21:41:41.116Z,7.30
2023-01-11T21:44:10.966Z,7.40
2023-01-11T21:46:41.027Z,7.40
2023-01-11T21:49:11.031Z,7.10
2023-01-11T21:51:43.460Z,7.10
2023-01-11T21:54:14.565Z,7.00
2023-01-11T21:56:43.544Z,7.00
2023-01-11T21:59:13.555Z,6.90
2023-01-11T22:01:46.329Z,6.90
2023-01-11T22:04:17.132Z,7.00
2023-01-11T22:06:51.887Z,7.00
2023-01-11T22:09:21.684Z,7.00
2023-01-11T22:11:51.519Z,7.10
2023-01-11T22:14:20.467Z,7.20
2023-01-11T22:16:49.737Z,7.20
2023-01-11T22:19:18.736Z,7.20
2023-01-11T22:21:47.912Z,7.30
2023-01-11T22:24:17.652Z,7.30
2023-01-11T22:26:46.451Z,7.40
2023-01-11T22:29:18.256Z,7.50
2023-01-11T22:31:51.454Z,7.40
2023-01-11T22:34:24.277Z,7.50
2023-01-11T22:37:12.214Z,7.60
2023-01-11T22:40:06.718Z,7.50
2023-01-11T22:42:58.828Z,7.30
2023-01-11T22:45:37.159Z,7.20
2023-01-11T22:48:08.530Z,7.00
2023-01-11T22:51:07.879Z,6.90
2023-01-11T22:58:31.974Z,7.10
2023-01-11T23:01:21.265Z,7.10
2023-01-11T23:03:58.893Z,6.90
2023-01-11T23:06:49.974Z,7.00
2023-01-11T23:17:21.979Z,6.60
2023-01-11T23:19:50.803Z,6.70
2023-01-11T23:22:20.089Z,6.80
2023-01-11T23:24:49.203Z,7.00
2023-01-11T23:27:17.978Z,7.00
2023-01-11T23:29:46.373Z,7.10
2023-01-11T23:32:15.049Z,7.20
2023-01-11T23:34:43.508Z,7.30
2023-01-11T23:37:12.389Z,7.30
2023-01-11T23:39:40.868Z,7.30
2023-01-11T23:42:29.320Z,7.30
2023-01-11T23:44:59.567Z,7.30
2023-01-11T23:47:30.197Z,7.30
2023-01-11T23:50:03.154Z,7.20
2023-01-11T23:52:32.663Z,7.20
2023-01-11T23:55:00.990Z,7.30
2023-01-11T23:57:29.808Z,7.30
2023-01-11T23:59:58.110Z,7.20
